Time;durP1;ratioP1;P1;durP2;ratioP2;P2;SDS_P1;SDS_P2;PMS_P1;PMS_P2;Temp;Humidity;BMP_temperature;BMP_pressure;BME280_temperature;BME280_humidity;BME280_pressure;Samples;Min_cycle;Max_cycle;Signal;HPM_P1;HPM_P2
2022/01/05 00:01:20;;;;;;;19.65;2.30;;;;;;;;;;5085256;28;20040;-61
2022/01/05 00:03:46;;;;;;;15.68;2.13;;;;;;;;;;5083696;28;20052;-61
2022/01/05 00:06:12;;;;;;;15.05;2.10;;;;;;;;;;5084383;28;20071;-61
2022/01/05 00:08:38;;;;;;;11.60;2.38;;;;;;;;;;5082600;28;20559;-61
2022/01/05 00:11:06;;;;;;;12.15;2.00;;;;;;;;;;5084160;28;20448;-61
2022/01/05 00:13:33;;;;;;;12.77;2.17;;;;;;;;;;5084652;28;20109;-61
2022/01/05 00:15:59;;;;;;;16.27;2.30;;;;;;;;;;5083583;28;20040;-61
2022/01/05 00:18:25;;;;;;;15.20;2.58;;;;;;;;;;5082041;28;20136;-61
2022/01/05 00:20:51;;;;;;;19.60;2.53;;;;;;;;;;5083286;28;20064;-61
2022/01/05 00:23:17;;;;;;;13.00;2.05;;;;;;;;;;5083016;28;20088;-61
2022/01/05 00:25:43;;;;;;;13.63;2.42;;;;;;;;;;5086084;28;20048;-61
2022/01/05 00:28:09;;;;;;;19.35;6.05;;;;;;;;;;5086656;28;20054;-61
2022/01/05 00:30:36;;;;;;;16.65;2.92;;;;;;;;;;5085629;28;20139;-61
2022/01/05 00:33:02;;;;;;;17.48;2.67;;;;;;;;;;5080421;28;20072;-61
2022/01/05 00:35:28;;;;;;;16.70;2.35;;;;;;;;;;5084677;28;20085;-61
2022/01/05 00:37:54;;;;;;;23.80;3.03;;;;;;;;;;5086987;28;20059;-60
2022/01/05 00:40:20;;;;;;;15.80;2.60;;;;;;;;;;5087459;28;20079;-61
2022/01/05 00:42:46;;;;;;;15.77;2.55;;;;;;;;;;5085042;28;20395;-61
2022/01/05 00:45:13;;;;;;;19.55;2.53;;;;;;;;;;5087250;28;20051;-61
2022/01/05 00:47:40;;;;;;;19.38;3.08;;;;;;;;;;5088281;28;20040;-61
2022/01/05 00:50:06;;;;;;;24.85;2.90;;;;;;;;;;5085505;28;20044;-61
2022/01/05 00:52:32;;;;;;;20.02;2.47;;;;;;;;;;5085541;28;20095;-61
2022/01/05 00:54:58;;;;;;;14.23;2.67;;;;;;;;;;5085459;28;20037;-61
2022/01/05 00:57:24;;;;;;;16.95;3.75;;;;;;;;;;5087428;28;20066;-61
2022/01/05 00:59:50;;;;;;;13.35;2.47;;;;;;;;;;5086388;28;20080;-61
2022/01/05 01:02:17;;;;;;;15.15;2.10;;;;;;;;;;5086039;28;20131;-61
2022/01/05 01:04:43;;;;;;;25.25;2.92;;;;;;;;;;5085287;28;20044;-61
2022/01/05 01:07:09;;;;;;;19.73;2.63;;;;;;;;;;5088534;28;20060;-61
2022/01/05 01:09:35;;;;;;;18.65;2.60;;;;;;;;;;5086080;28;20067;-61
2022/01/05 01:12:01;;;;;;;13.80;3.03;;;;;;;;;;5086193;28;21309;-61
2022/01/05 01:14:27;;;;;;;21.23;2.42;;;;;;;;;;5086588;28;20044;-61
2022/01/05 01:16:53;;;;;;;17.30;2.55;;;;;;;;;;5085064;28;20036;-61
2022/01/05 01:19:19;;;;;;;16.83;3.22;;;;;;;;;;5088350;28;20043;-61
2022/01/05 01:21:46;;;;;;;15.82;2.47;;;;;;;;;;5088716;28;20111;-61
2022/01/05 01:24:12;;;;;;;19.95;4.22;;;;;;;;;;5083311;28;20121;-61
2022/01/05 01:26:38;;;;;;;23.38;2.65;;;;;;;;;;5086041;28;20097;-61
2022/01/05 01:29:04;;;;;;;20.73;2.90;;;;;;;;;;5083333;28;20452;-61
2022/01/05 01:31:30;;;;;;;19.58;3.63;;;;;;;;;;5084635;28;20403;-61
2022/01/05 01:33:56;;;;;;;14.95;2.53;;;;;;;;;;5083853;28;20046;-61
2022/01/05 01:36:23;;;;;;;17.48;2.47;;;;;;;;;;5080793;28;20047;-60
2022/01/05 01:38:49;;;;;;;14.98;2.72;;;;;;;;;;5088018;28;20051;-61
2022/01/05 01:41:16;;;;;;;18.63;2.70;;;;;;;;;;5085973;28;20051;-61
2022/01/05 01:43:42;;;;;;;22.45;3.05;;;;;;;;;;5085879;28;20047;-61
2022/01/05 01:46:08;;;;;;;16.92;3.08;;;;;;;;;;5085476;28;20127;-61
2022/01/05 01:48:34;;;;;;;22.83;3.38;;;;;;;;;;5086084;28;20055;-61
2022/01/05 01:51:01;;;;;;;25.08;4.50;;;;;;;;;;5083957;28;20055;-61
2022/01/05 01:53:27;;;;;;;17.10;3.28;;;;;;;;;;5086423;28;20464;-61
2022/01/05 01:55:53;;;;;;;14.98;2.72;;;;;;;;;;5085597;28;20051;-61
2022/01/05 01:58:20;;;;;;;20.27;3.60;;;;;;;;;;5082256;28;20043;-61
2022/01/05 02:00:47;;;;;;;28.25;4.10;;;;;;;;;;5085231;28;20066;-61
2022/01/05 02:03:14;;;;;;;18.90;3.20;;;;;;;;;;5085715;28;20419;-61
2022/01/05 02:05:40;;;;;;;13.38;2.35;;;;;;;;;;5085562;28;20071;-61
2022/01/05 02:08:06;;;;;;;18.60;2.88;;;;;;;;;;5082437;28;20120;-61
2022/01/05 02:10:33;;;;;;;18.27;3.50;;;;;;;;;;5101617;28;20044;-61
2022/01/05 02:12:59;;;;;;;18.88;3.00;;;;;;;;;;5080788;28;20099;-61
2022/01/05 02:15:25;;;;;;;17.67;2.42;;;;;;;;;;5084354;28;20406;-61
2022/01/05 02:20:29;;;;;;;21.67;2.85;;;;;;;;;;5086152;28;20098;-61
2022/01/05 02:22:55;;;;;;;17.15;2.92;;;;;;;;;;5084011;28;20060;-61
2022/01/05 02:25:22;;;;;;;19.98;3.85;;;;;;;;;;5098104;28;20047;-61
2022/01/05 02:27:49;;;;;;;17.05;2.97;;;;;;;;;;5084068;28;20123;-61
2022/01/05 02:30:19;;;;;;;23.05;2.67;;;;;;;;;;5083985;28;20199;-61
2022/01/05 02:32:45;;;;;;;19.17;3.28;;;;;;;;;;5084782;28;20450;-61
2022/01/05 02:35:11;;;;;;;18.80;2.63;;;;;;;;;;5084764;28;20043;-61
2022/01/05 02:37:45;;;;;;;16.27;3.33;;;;;;;;;;5086382;28;20195;-61
2022/01/05 02:40:12;;;;;;;16.58;3.90;;;;;;;;;;5078501;28;20518;-61
2022/01/05 02:42:38;;;;;;;23.10;3.25;;;;;;;;;;5076041;28;20147;-61
2022/01/05 02:45:04;;;;;;;16.77;3.05;;;;;;;;;;5082703;28;20500;-61
2022/01/05 02:47:30;;;;;;;18.08;2.78;;;;;;;;;;5081937;28;20040;-61
2022/01/05 02:49:57;;;;;;;15.05;2.95;;;;;;;;;;5083447;28;20041;-61
2022/01/05 02:52:24;;;;;;;22.52;5.70;;;;;;;;;;5084947;28;20455;-61
2022/01/05 02:54:50;;;;;;;15.45;3.25;;;;;;;;;;5084568;28;20036;-61
2022/01/05 02:57:16;;;;;;;16.58;2.20;;;;;;;;;;5094449;28;20044;-61
2022/01/05 02:59:42;;;;;;;11.65;2.88;;;;;;;;;;5086237;28;20093;-61
2022/01/05 03:02:09;;;;;;;17.35;2.42;;;;;;;;;;5080857;28;20456;-61
2022/01/05 03:04:35;;;;;;;12.48;2.25;;;;;;;;;;5084870;28;20044;-61
2022/01/05 03:07:01;;;;;;;14.15;2.08;;;;;;;;;;5083913;28;20127;-61
2022/01/05 03:09:27;;;;;;;17.85;2.88;;;;;;;;;;5077028;28;20504;-61
2022/01/05 03:11:54;;;;;;;12.82;2.55;;;;;;;;;;5081442;28;20089;-61
2022/01/05 03:14:21;;;;;;;16.08;2.70;;;;;;;;;;5080104;28;20123;-61
2022/01/05 03:16:47;;;;;;;18.60;3.40;;;;;;;;;;5080569;28;20051;-61
2022/01/05 03:19:13;;;;;;;23.50;4.50;;;;;;;;;;5080864;28;20040;-61
2022/01/05 03:21:39;;;;;;;18.13;3.13;;;;;;;;;;5077806;28;20052;-61
2022/01/05 03:24:06;;;;;;;25.98;3.42;;;;;;;;;;5082412;28;20456;-61
2022/01/05 03:26:32;;;;;;;19.70;3.13;;;;;;;;;;5086890;28;20078;-61
2022/01/05 03:28:58;;;;;;;19.45;3.05;;;;;;;;;;5082525;28;20036;-61
2022/01/05 03:31:24;;;;;;;14.43;3.20;;;;;;;;;;5078211;28;20048;-61
2022/01/05 03:33:50;;;;;;;14.10;3.30;;;;;;;;;;5080160;28;20373;-61
2022/01/05 03:36:17;;;;;;;24.38;3.70;;;;;;;;;;5080912;28;20115;-61
2022/01/05 03:38:43;;;;;;;12.18;2.55;;;;;;;;;;5075360;28;20132;-61
2022/01/05 03:41:09;;;;;;;15.70;2.72;;;;;;;;;;5077211;28;20124;-61
2022/01/05 03:43:35;;;;;;;16.17;2.50;;;;;;;;;;5082986;28;20428;-61
2022/01/05 03:46:01;;;;;;;30.55;3.50;;;;;;;;;;5074209;28;20044;-61
2022/01/05 03:48:27;;;;;;;21.23;2.83;;;;;;;;;;5078112;28;20102;-61
2022/01/05 03:50:54;;;;;;;16.08;2.60;;;;;;;;;;5083644;28;20502;-61
2022/01/05 03:53:20;;;;;;;17.35;2.72;;;;;;;;;;5081239;28;20040;-61
2022/01/05 03:55:46;;;;;;;11.35;1.80;;;;;;;;;;5083882;28;20043;-61
2022/01/05 03:58:13;;;;;;;13.85;2.35;;;;;;;;;;5082770;28;20048;-61
2022/01/05 04:00:40;;;;;;;12.02;1.33;;;;;;;;;;5086177;28;20115;-61
2022/01/05 04:03:07;;;;;;;17.20;2.80;;;;;;;;;;5089252;28;20488;-61
2022/01/05 04:05:33;;;;;;;24.30;2.33;;;;;;;;;;5085897;28;20044;-61
2022/01/05 04:07:59;;;;;;;12.63;3.10;;;;;;;;;;5086854;28;20064;-61
2022/01/05 04:10:25;;;;;;;38.70;4.32;;;;;;;;;;5087526;28;20060;-61
2022/01/05 04:12:52;;;;;;;13.65;2.38;;;;;;;;;;5087036;28;20048;-61
2022/01/05 04:15:18;;;;;;;17.77;3.03;;;;;;;;;;5086238;28;20062;-61
2022/01/05 04:17:45;;;;;;;25.55;4.43;;;;;;;;;;5089335;28;20048;-61
2022/01/05 04:20:11;;;;;;;18.20;2.63;;;;;;;;;;5085284;28;20028;-61
2022/01/05 04:22:38;;;;;;;17.75;3.55;;;;;;;;;;5088742;28;20109;-61
2022/01/05 04:25:04;;;;;;;15.48;2.85;;;;;;;;;;5082933;28;20044;-61
2022/01/05 04:27:30;;;;;;;21.20;3.28;;;;;;;;;;5088881;28;20044;-61
2022/01/05 04:29:56;;;;;;;18.00;3.05;;;;;;;;;;5085433;28;20169;-61
2022/01/05 04:32:23;;;;;;;27.30;3.05;;;;;;;;;;5087132;28;20130;-61
2022/01/05 04:34:49;;;;;;;20.00;3.60;;;;;;;;;;5087848;28;20059;-61
2022/01/05 04:37:15;;;;;;;27.67;3.47;;;;;;;;;;5089696;28;20372;-61
2022/01/05 04:39:41;;;;;;;21.70;4.80;;;;;;;;;;5087108;28;20129;-61
2022/01/05 04:42:07;;;;;;;20.65;2.80;;;;;;;;;;5087877;28;20143;-61
2022/01/05 04:44:34;;;;;;;21.27;3.05;;;;;;;;;;5088738;28;20052;-61
2022/01/05 04:47:00;;;;;;;21.95;3.20;;;;;;;;;;5088455;28;20111;-61
2022/01/05 04:49:26;;;;;;;22.45;4.05;;;;;;;;;;5086015;28;20052;-61
2022/01/05 04:51:52;;;;;;;22.48;3.42;;;;;;;;;;5084441;28;20036;-61
2022/01/05 04:54:19;;;;;;;25.88;3.50;;;;;;;;;;5101825;28;20047;-61
2022/01/05 04:56:45;;;;;;;19.60;3.90;;;;;;;;;;5079904;28;20082;-61
2022/01/05 04:59:11;;;;;;;17.50;3.40;;;;;;;;;;5083545;28;20073;-61
2022/01/05 05:01:37;;;;;;;21.95;2.83;;;;;;;;;;5083390;28;20067;-61
2022/01/05 05:04:04;;;;;;;20.45;3.28;;;;;;;;;;5087891;28;20052;-61
2022/01/05 05:06:30;;;;;;;26.10;3.25;;;;;;;;;;5100885;28;20032;-61
2022/01/05 05:08:56;;;;;;;22.77;4.05;;;;;;;;;;5087636;28;20071;-61
2022/01/05 05:11:22;;;;;;;20.40;2.88;;;;;;;;;;5084077;28;20071;-61
2022/01/05 05:13:48;;;;;;;21.98;3.03;;;;;;;;;;5084325;28;20040;-61
2022/01/05 05:16:14;;;;;;;26.90;3.30;;;;;;;;;;5078859;28;20062;-61
2022/01/05 05:18:40;;;;;;;36.42;5.78;;;;;;;;;;5078931;28;20050;-61
2022/01/05 05:21:07;;;;;;;23.45;3.22;;;;;;;;;;5088510;28;20035;-61
2022/01/05 05:23:33;;;;;;;24.20;3.45;;;;;;;;;;5086189;28;20082;-61
2022/01/05 05:25:59;;;;;;;23.63;3.20;;;;;;;;;;5086430;28;20032;-61
2022/01/05 05:28:25;;;;;;;21.92;3.17;;;;;;;;;;5086209;28;20036;-62
2022/01/05 05:30:51;;;;;;;20.80;3.38;;;;;;;;;;5085216;28;20055;-62
2022/01/05 05:33:17;;;;;;;18.88;2.47;;;;;;;;;;5102585;28;20403;-61
2022/01/05 05:35:44;;;;;;;22.13;2.88;;;;;;;;;;5087848;28;20040;-62
2022/01/05 05:38:11;;;;;;;19.50;2.78;;;;;;;;;;5086944;28;20064;-62
2022/01/05 05:40:38;;;;;;;28.92;3.28;;;;;;;;;;5086272;28;20044;-62
2022/01/05 05:43:04;;;;;;;23.90;2.78;;;;;;;;;;5084787;28;20046;-62
2022/01/05 05:45:30;;;;;;;27.40;3.10;;;;;;;;;;5085831;28;20094;-62
2022/01/05 05:47:57;;;;;;;24.98;3.42;;;;;;;;;;5086920;28;20139;-62
2022/01/05 05:50:23;;;;;;;19.30;3.47;;;;;;;;;;5085716;28;20511;-62
2022/01/05 05:52:49;;;;;;;27.58;3.47;;;;;;;;;;5085834;28;20036;-62
2022/01/05 05:55:15;;;;;;;25.17;2.50;;;;;;;;;;5085968;28;20086;-62
2022/01/05 05:57:42;;;;;;;28.27;3.20;;;;;;;;;;5083130;28;20043;-62
2022/01/05 06:00:09;;;;;;;26.58;3.30;;;;;;;;;;5081018;28;20077;-62
2022/01/05 06:02:35;;;;;;;30.40;4.70;;;;;;;;;;5085124;28;20496;-62
2022/01/05 06:05:01;;;;;;;16.80;3.03;;;;;;;;;;5094629;28;20091;-62
2022/01/05 06:07:27;;;;;;;25.45;4.90;;;;;;;;;;5086874;28;20089;-62
2022/01/05 06:09:53;;;;;;;18.38;3.58;;;;;;;;;;5085272;28;20126;-62
2022/01/05 06:12:19;;;;;;;24.52;2.63;;;;;;;;;;5085321;28;20036;-62
2022/01/05 06:14:45;;;;;;;13.63;2.33;;;;;;;;;;5083605;28;20075;-62
2022/01/05 06:17:12;;;;;;;10.82;2.13;;;;;;;;;;5083029;28;20089;-61
2022/01/05 06:19:38;;;;;;;14.45;1.70;;;;;;;;;;5082703;28;20479;-61
2022/01/05 06:22:04;;;;;;;15.15;2.30;;;;;;;;;;5081385;28;20364;-61
2022/01/05 06:24:30;;;;;;;18.23;2.30;;;;;;;;;;5092309;28;20527;-62
2022/01/05 06:26:56;;;;;;;17.20;2.38;;;;;;;;;;5093132;28;20344;-62
2022/01/05 06:29:22;;;;;;;16.35;2.05;;;;;;;;;;5095855;28;20093;-67
2022/01/05 06:31:49;;;;;;;15.80;2.60;;;;;;;;;;5090182;28;20047;-62
2022/01/05 06:34:15;;;;;;;21.73;2.63;;;;;;;;;;5090813;28;20051;-62
2022/01/05 06:36:41;;;;;;;15.25;2.00;;;;;;;;;;5092900;28;20120;-61
2022/01/05 06:39:07;;;;;;;18.65;2.83;;;;;;;;;;5087689;28;20036;-61
2022/01/05 06:41:33;;;;;;;15.85;3.20;;;;;;;;;;5089611;28;20052;-62
2022/01/05 06:43:59;;;;;;;21.08;2.47;;;;;;;;;;5091024;28;20063;-61
2022/01/05 06:46:25;;;;;;;20.17;2.60;;;;;;;;;;5091151;28;20055;-62
2022/01/05 06:48:51;;;;;;;15.98;2.25;;;;;;;;;;5090418;28;20096;-62
2022/01/05 06:51:18;;;;;;;21.33;2.00;;;;;;;;;;5094284;28;20075;-62
2022/01/05 06:53:44;;;;;;;19.90;3.15;;;;;;;;;;5090563;28;20040;-63
2022/01/05 06:56:10;;;;;;;24.02;3.33;;;;;;;;;;5091068;28;20500;-61
2022/01/05 06:58:36;;;;;;;27.45;3.72;;;;;;;;;;5090951;28;20052;-61
2022/01/05 07:01:02;;;;;;;21.55;3.10;;;;;;;;;;5089019;28;20040;-61
2022/01/05 07:03:28;;;;;;;19.95;2.58;;;;;;;;;;5089888;28;20048;-62
2022/01/05 07:05:54;;;;;;;23.95;2.33;;;;;;;;;;5089598;28;20048;-62
2022/01/05 07:08:21;;;;;;;12.90;2.35;;;;;;;;;;5089575;28;20044;-62
2022/01/05 07:10:47;;;;;;;18.35;2.60;;;;;;;;;;5089944;28;20148;-62
2022/01/05 07:13:13;;;;;;;16.27;2.70;;;;;;;;;;5098277;27;20052;-62
2022/01/05 07:15:39;;;;;;;16.20;2.85;;;;;;;;;;5088134;28;20474;-62
2022/01/05 07:18:05;;;;;;;18.38;4.13;;;;;;;;;;5092418;28;20047;-62
2022/01/05 07:20:31;;;;;;;22.90;2.53;;;;;;;;;;5089238;28;20043;-62
2022/01/05 07:22:57;;;;;;;27.70;3.90;;;;;;;;;;5088552;28;20048;-62
2022/01/05 07:25:23;;;;;;;28.10;4.40;;;;;;;;;;5091744;28;20123;-62
2022/01/05 07:27:50;;;;;;;25.20;4.15;;;;;;;;;;5090601;28;20063;-62
2022/01/05 07:30:16;;;;;;;29.15;3.30;;;;;;;;;;5089328;28;20032;-62
2022/01/05 07:32:42;;;;;;;23.05;3.53;;;;;;;;;;5090633;28;20048;-62
2022/01/05 07:35:08;;;;;;;33.97;3.72;;;;;;;;;;5095828;28;20051;-62
2022/01/05 07:37:34;;;;;;;27.58;4.65;;;;;;;;;;5096260;28;20060;-61
2022/01/05 07:40:01;;;;;;;13.23;2.17;;;;;;;;;;5096274;28;20035;-62
2022/01/05 07:42:30;;;;;;;15.95;1.73;;;;;;;;;;5102705;28;20044;-62
2022/01/05 07:44:57;;;;;;;6.75;1.23;;;;;;;;;;5097106;28;20502;-62
2022/01/05 07:47:23;;;;;;;13.05;1.73;;;;;;;;;;5095909;28;20431;-63
2022/01/05 07:49:49;;;;;;;12.50;1.33;;;;;;;;;;5097191;28;20120;-63
2022/01/05 07:52:18;;;;;;;14.32;1.80;;;;;;;;;;5096352;28;20483;-63
2022/01/05 07:54:44;;;;;;;27.80;2.47;;;;;;;;;;5105650;27;20048;-62
2022/01/05 07:57:10;;;;;;;23.40;2.83;;;;;;;;;;5092379;28;20099;-63
2022/01/05 07:59:36;;;;;;;24.80;3.28;;;;;;;;;;5093673;28;20396;-62
2022/01/05 08:02:03;;;;;;;32.22;4.88;;;;;;;;;;5093744;28;20101;-62
2022/01/05 08:04:29;;;;;;;33.17;4.97;;;;;;;;;;5099068;28;20052;-61
2022/01/05 08:06:55;;;;;;;24.27;3.72;;;;;;;;;;5094903;28;21647;-61
2022/01/05 08:09:21;;;;;;;16.50;2.80;;;;;;;;;;5095699;28;20048;-61
2022/01/05 08:11:47;;;;;;;39.40;4.38;;;;;;;;;;5100078;28;20078;-62
2022/01/05 08:14:13;;;;;;;25.25;4.68;;;;;;;;;;5097448;28;20050;-62
2022/01/05 08:16:40;;;;;;;9.88;2.33;;;;;;;;;;5097299;28;20048;-61
2022/01/05 08:19:06;;;;;;;9.18;2.53;;;;;;;;;;5096000;28;20147;-61
2022/01/05 08:21:32;;;;;;;17.35;2.25;;;;;;;;;;5098984;28;20077;-61
2022/01/05 08:23:58;;;;;;;13.25;1.98;;;;;;;;;;5095549;28;20056;-62
2022/01/05 08:26:24;;;;;;;15.70;2.45;;;;;;;;;;5096121;28;20043;-66
2022/01/05 08:28:50;;;;;;;26.38;2.50;;;;;;;;;;5095676;28;20401;-62
2022/01/05 08:31:16;;;;;;;19.60;3.83;;;;;;;;;;5096682;28;20384;-62
2022/01/05 08:33:43;;;;;;;21.25;3.78;;;;;;;;;;5095920;28;20412;-62
2022/01/05 08:36:09;;;;;;;27.77;4.13;;;;;;;;;;5096914;28;20032;-62
2022/01/05 08:38:37;;;;;;;41.63;6.30;;;;;;;;;;5096943;28;20055;-61
2022/01/05 08:41:03;;;;;;;26.77;3.25;;;;;;;;;;5095880;28;20048;-61
2022/01/05 08:43:31;;;;;;;29.55;4.18;;;;;;;;;;5096740;28;20048;-61
2022/01/05 08:45:58;;;;;;;21.48;3.38;;;;;;;;;;5097218;28;20058;-62
2022/01/05 08:48:24;;;;;;;9.93;1.40;;;;;;;;;;5093055;28;20040;-62
2022/01/05 08:50:51;;;;;;;9.07;1.17;;;;;;;;;;5092823;28;20075;-62
2022/01/05 08:53:17;;;;;;;11.18;1.77;;;;;;;;;;5092465;28;20074;-62
2022/01/05 08:55:44;;;;;;;11.65;2.63;;;;;;;;;;5093472;28;20043;-61
2022/01/05 08:58:11;;;;;;;18.23;1.95;;;;;;;;;;5093563;28;20039;-62
2022/01/05 09:00:37;;;;;;;29.95;5.18;;;;;;;;;;5091042;28;20036;-63
2022/01/05 09:03:04;;;;;;;22.58;2.80;;;;;;;;;;5094535;28;20039;-62
2022/01/05 09:05:30;;;;;;;17.48;2.75;;;;;;;;;;5091119;28;20040;-62
2022/01/05 09:07:57;;;;;;;30.05;3.65;;;;;;;;;;5095403;28;20478;-62
2022/01/05 09:10:23;;;;;;;19.88;4.10;;;;;;;;;;5091652;28;20044;-62
2022/01/05 09:12:49;;;;;;;26.15;3.72;;;;;;;;;;5091569;28;20051;-63
2022/01/05 09:15:16;;;;;;;25.23;3.53;;;;;;;;;;5093262;28;20115;-62
2022/01/05 09:17:42;;;;;;;36.50;4.45;;;;;;;;;;5092523;28;20078;-63
2022/01/05 09:20:08;;;;;;;45.45;8.05;;;;;;;;;;5096982;28;20040;-62
2022/01/05 09:22:38;;;;;;;29.55;6.78;;;;;;;;;;5092589;28;20071;-62
2022/01/05 09:25:06;;;;;;;36.58;5.68;;;;;;;;;;5092523;28;20058;-62
2022/01/05 09:27:32;;;;;;;37.83;6.90;;;;;;;;;;5088642;28;20047;-62
2022/01/05 09:29:58;;;;;;;39.83;6.35;;;;;;;;;;5095615;28;20105;-62
2022/01/05 09:32:24;;;;;;;34.10;6.85;;;;;;;;;;5096323;28;20044;-62
2022/01/05 09:34:51;;;;;;;35.05;5.88;;;;;;;;;;5093101;28;20040;-62
2022/01/05 09:42:30;;;;;;;29.52;4.95;;;;;;;;;;5098038;28;20075;-62
2022/01/05 09:44:57;;;;;;;26.00;4.07;;;;;;;;;;5092219;28;20097;-63
2022/01/05 09:47:32;;;;;;;28.05;4.85;;;;;;;;;;5092108;28;20045;-62
2022/01/05 09:50:03;;;;;;;25.85;3.20;;;;;;;;;;5092766;28;20117;-61
2022/01/05 09:52:30;;;;;;;28.80;3.50;;;;;;;;;;5088638;28;20056;-62
2022/01/05 09:54:56;;;;;;;17.83;3.15;;;;;;;;;;5091654;28;20047;-62
2022/01/05 09:57:22;;;;;;;15.35;3.40;;;;;;;;;;5090599;28;20396;-62
2022/01/05 09:59:48;;;;;;;19.17;3.08;;;;;;;;;;5087983;28;20082;-62
2022/01/05 10:02:16;;;;;;;16.10;3.03;;;;;;;;;;5089670;28;20048;-63
2022/01/05 10:04:42;;;;;;;22.02;3.22;;;;;;;;;;5090617;28;20044;-62
2022/01/05 10:07:09;;;;;;;26.25;3.40;;;;;;;;;;5090388;28;20424;-62
2022/01/05 10:09:37;;;;;;;26.67;3.97;;;;;;;;;;5091422;28;20052;-63
2022/01/05 10:12:04;;;;;;;22.20;4.28;;;;;;;;;;5090077;28;20043;-63
2022/01/05 10:14:30;;;;;;;34.55;4.57;;;;;;;;;;5090615;28;20048;-63
2022/01/05 10:17:02;;;;;;;28.08;4.53;;;;;;;;;;5089540;28;20447;-62
2022/01/05 10:19:28;;;;;;;30.40;5.20;;;;;;;;;;5093117;28;20047;-63
2022/01/05 10:21:56;;;;;;;32.10;4.13;;;;;;;;;;5088291;28;20055;-62
2022/01/05 10:24:41;;;;;;;25.77;4.90;;;;;;;;;;5090134;28;20051;-62
2022/01/05 10:27:08;;;;;;;33.83;5.38;;;;;;;;;;5094281;28;20071;-62
2022/01/05 10:29:34;;;;;;;33.45;3.78;;;;;;;;;;5092895;28;20090;-63
2022/01/05 10:32:01;;;;;;;38.38;4.35;;;;;;;;;;5087484;28;20104;-62
2022/01/05 10:34:31;;;;;;;31.25;3.70;;;;;;;;;;5088304;28;20048;-63
2022/01/05 10:36:59;;;;;;;13.75;3.53;;;;;;;;;;5089109;28;20044;-62
2022/01/05 10:39:32;;;;;;;26.30;4.00;;;;;;;;;;5098037;28;20130;-63
2022/01/05 10:42:08;;;;;;;19.45;3.67;;;;;;;;;;5091983;28;20036;-62
2022/01/05 10:44:35;;;;;;;19.92;3.08;;;;;;;;;;5093405;28;20105;-63
2022/01/05 10:47:01;;;;;;;18.52;2.97;;;;;;;;;;5091458;28;20062;-62
2022/01/05 10:49:29;;;;;;;28.58;3.00;;;;;;;;;;5091159;28;20052;-63
2022/01/05 10:51:57;;;;;;;22.42;3.03;;;;;;;;;;5095137;28;20057;-62
2022/01/05 10:54:24;;;;;;;22.02;4.63;;;;;;;;;;5089186;28;20116;-62
2022/01/05 10:56:50;;;;;;;22.10;3.88;;;;;;;;;;5090845;28;20040;-62
2022/01/05 10:59:28;;;;;;;23.33;3.35;;;;;;;;;;5088854;28;20042;-62
2022/01/05 11:01:55;;;;;;;28.33;5.32;;;;;;;;;;5090362;28;20063;-62
2022/01/05 11:04:22;;;;;;;28.25;3.67;;;;;;;;;;5091898;28;20090;-61
2022/01/05 11:06:54;;;;;;;23.05;3.88;;;;;;;;;;5090796;28;20047;-63
2022/01/05 11:09:21;;;;;;;27.13;3.55;;;;;;;;;;5091033;28;20419;-63
2022/01/05 11:11:49;;;;;;;25.38;4.38;;;;;;;;;;5088543;28;20047;-63
2022/01/05 11:14:15;;;;;;;16.88;3.60;;;;;;;;;;5087682;28;20048;-62
2022/01/05 11:16:43;;;;;;;18.10;4.15;;;;;;;;;;5090949;28;20032;-62
2022/01/05 11:19:16;;;;;;;8.88;2.15;;;;;;;;;;5090806;28;20040;-62
2022/01/05 11:21:55;;;;;;;11.15;1.45;;;;;;;;;;5089209;28;20040;-62
2022/01/05 11:24:22;;;;;;;10.77;2.03;;;;;;;;;;5090783;28;20039;-62
2022/01/05 11:26:48;;;;;;;4.18;1.02;;;;;;;;;;5090762;28;20122;-62
2022/01/05 11:29:15;;;;;;;12.30;1.85;;;;;;;;;;5089989;28;20044;-62
2022/01/05 11:31:43;;;;;;;13.13;2.40;;;;;;;;;;5090452;28;20548;-62
2022/01/05 11:34:09;;;;;;;12.20;2.17;;;;;;;;;;5089230;28;20101;-62
2022/01/05 11:36:35;;;;;;;14.30;2.67;;;;;;;;;;5088716;28;20123;-62
2022/01/05 11:39:02;;;;;;;17.20;3.63;;;;;;;;;;5090398;28;20044;-70
2022/01/05 11:41:28;;;;;;;21.27;3.28;;;;;;;;;;5089490;28;20068;-62
2022/01/05 11:43:54;;;;;;;30.30;3.83;;;;;;;;;;5088491;28;20101;-63
2022/01/05 11:46:21;;;;;;;23.33;4.32;;;;;;;;;;5089028;28;20557;-62
2022/01/05 11:49:03;;;;;;;29.55;4.05;;;;;;;;;;5089241;28;20064;-62
2022/01/05 11:51:30;;;;;;;31.80;4.47;;;;;;;;;;5090594;28;20114;-63
2022/01/05 11:54:12;;;;;;;27.45;3.80;;;;;;;;;;5094661;28;20028;-62
2022/01/05 11:56:41;;;;;;;22.15;4.25;;;;;;;;;;5090702;28;20040;-62
2022/01/05 11:59:19;;;;;;;26.38;4.38;;;;;;;;;;5090511;28;20048;-62
2022/01/05 12:01:56;;;;;;;31.90;5.45;;;;;;;;;;5090152;28;20131;-63
2022/01/05 12:04:23;;;;;;;31.25;5.05;;;;;;;;;;5088021;28;20064;-62
2022/01/05 12:06:49;;;;;;;23.20;4.32;;;;;;;;;;5078396;28;20112;-62
2022/01/05 12:09:20;;;;;;;25.55;4.57;;;;;;;;;;5074616;28;20044;-63
2022/01/05 12:11:47;;;;;;;22.55;3.95;;;;;;;;;;5075515;28;20051;-62
2022/01/05 12:14:20;;;;;;;21.90;3.67;;;;;;;;;;5076912;28;20059;-62
2022/01/05 12:16:59;;;;;;;22.48;3.72;;;;;;;;;;5080166;28;20047;-62
2022/01/05 12:19:26;;;;;;;27.70;3.42;;;;;;;;;;5077587;28;20127;-63
2022/01/05 12:21:55;;;;;;;21.45;4.10;;;;;;;;;;5080886;28;20041;-62
2022/01/05 12:24:21;;;;;;;26.00;4.45;;;;;;;;;;5084006;28;20135;-63
2022/01/05 12:27:08;;;;;;;27.50;3.72;;;;;;;;;;5080367;28;20119;-61
2022/01/05 12:29:34;;;;;;;20.58;2.75;;;;;;;;;;5089515;28;20395;-62
2022/01/05 12:32:01;;;;;;;25.30;3.38;;;;;;;;;;5079842;28;20395;-62
2022/01/05 12:34:46;;;;;;;19.27;3.58;;;;;;;;;;5082433;28;20400;-62
2022/01/05 12:37:31;;;;;;;24.33;3.30;;;;;;;;;;5085143;28;20051;-62
2022/01/05 12:39:59;;;;;;;25.92;4.47;;;;;;;;;;5094120;28;20372;-62
2022/01/05 12:42:25;;;;;;;25.55;3.15;;;;;;;;;;5093072;28;20423;-62
2022/01/05 12:44:51;;;;;;;24.73;3.58;;;;;;;;;;5096793;28;20109;-62
2022/01/05 12:47:34;;;;;;;29.52;5.15;;;;;;;;;;5081868;28;20044;-62
2022/01/05 12:50:16;;;;;;;31.08;5.07;;;;;;;;;;5075321;28;20048;-62
2022/01/05 12:52:42;;;;;;;28.10;5.40;;;;;;;;;;5080548;28;20171;-62
2022/01/05 12:55:09;;;;;;;31.48;3.65;;;;;;;;;;5081484;28;20467;-62
2022/01/05 12:57:36;;;;;;;24.50;3.70;;;;;;;;;;5097469;28;20036;-62
2022/01/05 13:00:04;;;;;;;31.15;5.65;;;;;;;;;;5095469;28;20047;-61
2022/01/05 13:02:31;;;;;;;23.40;3.38;;;;;;;;;;5094005;28;20156;-62
2022/01/05 13:05:01;;;;;;;18.65;3.35;;;;;;;;;;5099539;28;20048;-62
2022/01/05 13:07:29;;;;;;;23.85;4.03;;;;;;;;;;5094040;28;20051;-62
2022/01/05 13:09:56;;;;;;;26.02;3.70;;;;;;;;;;5096692;28;20122;-62
2022/01/05 13:12:24;;;;;;;22.80;4.38;;;;;;;;;;5095841;28;20105;-62
2022/01/05 13:14:58;;;;;;;26.55;4.35;;;;;;;;;;5097088;28;20036;-62
2022/01/05 13:17:28;;;;;;;29.80;4.70;;;;;;;;;;5093601;28;20094;-62
2022/01/05 13:19:58;;;;;;;20.90;3.33;;;;;;;;;;5094355;28;20036;-62
2022/01/05 13:22:25;;;;;;;18.08;2.90;;;;;;;;;;5093885;28;20131;-62
2022/01/05 13:24:55;;;;;;;19.20;3.20;;;;;;;;;;5101651;28;20115;-62
2022/01/05 13:27:23;;;;;;;24.27;3.85;;;;;;;;;;5092921;28;20372;-62
2022/01/05 13:29:49;;;;;;;26.65;4.13;;;;;;;;;;5094367;28;20503;-62
2022/01/05 13:32:17;;;;;;;24.40;4.35;;;;;;;;;;5091378;28;20039;-62
2022/01/05 13:34:45;;;;;;;35.40;5.65;;;;;;;;;;5095041;28;20052;-62
2022/01/05 13:37:12;;;;;;;22.80;3.75;;;;;;;;;;5099786;28;20047;-62
2022/01/05 13:39:40;;;;;;;27.77;3.75;;;;;;;;;;5097057;28;20449;-63
2022/01/05 13:42:07;;;;;;;19.02;2.78;;;;;;;;;;5090319;28;20463;-67
2022/01/05 13:44:38;;;;;;;16.20;2.47;;;;;;;;;;5093791;28;20415;-62
2022/01/05 13:47:05;;;;;;;12.88;3.10;;;;;;;;;;5091581;28;20109;-63
2022/01/05 13:49:31;;;;;;;22.25;3.22;;;;;;;;;;5091112;28;20048;-62
2022/01/05 13:52:04;;;;;;;13.45;2.38;;;;;;;;;;5092405;28;20040;-62
2022/01/05 13:54:31;;;;;;;18.73;2.63;;;;;;;;;;5090766;28;20093;-62
2022/01/05 13:56:58;;;;;;;19.75;2.50;;;;;;;;;;5095691;28;20487;-63
2022/01/05 13:59:24;;;;;;;16.38;3.25;;;;;;;;;;5093171;28;20043;-62
2022/01/05 14:01:58;;;;;;;33.40;4.95;;;;;;;;;;5093472;28;20032;-62
2022/01/05 14:04:24;;;;;;;16.40;3.42;;;;;;;;;;5088060;28;20078;-62
2022/01/05 14:07:01;;;;;;;25.80;2.65;;;;;;;;;;5074465;28;20044;-63
2022/01/05 14:09:29;;;;;;;22.77;3.05;;;;;;;;;;5094904;28;20047;-62
2022/01/05 14:11:57;;;;;;;17.15;4.10;;;;;;;;;;5089762;28;20494;-62
2022/01/05 14:14:24;;;;;;;27.58;3.58;;;;;;;;;;5094923;28;20064;-62
2022/01/05 14:16:51;;;;;;;18.00;3.45;;;;;;;;;;5089549;28;20079;-62
2022/01/05 14:19:26;;;;;;;26.30;4.25;;;;;;;;;;5099694;28;20081;-62
2022/01/05 14:22:01;;;;;;;32.05;4.40;;;;;;;;;;5088049;28;20036;-62
2022/01/05 14:24:36;;;;;;;23.17;3.97;;;;;;;;;;5094511;28;20035;-62
2022/01/05 14:27:03;;;;;;;29.23;4.47;;;;;;;;;;5112379;28;20044;-62
2022/01/05 14:29:29;;;;;;;24.20;3.10;;;;;;;;;;5112082;28;20047;-62
2022/01/05 14:32:04;;;;;;;20.77;2.97;;;;;;;;;;5110163;28;20462;-62
2022/01/05 14:34:30;;;;;;;19.50;3.00;;;;;;;;;;5105931;28;20058;-62
2022/01/05 14:37:05;;;;;;;25.48;3.35;;;;;;;;;;5098958;28;20050;-62
2022/01/05 14:39:38;;;;;;;17.88;3.17;;;;;;;;;;5109859;28;20047;-62